createdAt,value
2022-12-14T00:01:27.056Z,-3.60
2022-12-14T00:03:54.877Z,-3.50
2022-12-14T00:06:23.313Z,-3.50
2022-12-14T00:08:52.239Z,-3.60
2022-12-14T00:11:20.064Z,-3.50
2022-12-14T00:13:49.128Z,-3.50
2022-12-14T00:16:18.038Z,-3.60
2022-12-14T00:18:49.316Z,-3.50
2022-12-14T00:21:16.878Z,-3.50
2022-12-14T00:23:45.185Z,-3.50
2022-12-14T00:26:23.211Z,-3.50
2022-12-14T00:28:52.300Z,-3.40
2022-12-14T00:31:19.847Z,-3.40
2022-12-14T00:33:46.792Z,-3.40
2022-12-14T00:36:14.066Z,-3.40
2022-12-14T00:38:41.497Z,-3.30
2022-12-14T00:41:09.660Z,-3.30
2022-12-14T00:43:36.574Z,-3.20
2022-12-14T00:46:05.380Z,-3.20
2022-12-14T00:48:33.127Z,-3.20
2022-12-14T00:51:00.608Z,-3.20
2022-12-14T00:53:27.540Z,-3.10
2022-12-14T00:55:54.278Z,-3.10
2022-12-14T00:58:23.459Z,-3.10
2022-12-14T01:01:08.226Z,-3.10
2022-12-14T01:03:35.267Z,-3.10
2022-12-14T01:06:02.521Z,-3.10
2022-12-14T01:08:35.547Z,-3.10
2022-12-14T01:11:10.138Z,-3.10
2022-12-14T01:13:38.080Z,-3.10
2022-12-14T01:16:11.472Z,-3.10
2022-12-14T01:18:39.589Z,-3.10
2022-12-14T01:21:20.728Z,-3.10
2022-12-14T01:23:48.600Z,-3.10
2022-12-14T01:26:17.276Z,-3.10
2022-12-14T01:28:45.633Z,-3.10
2022-12-14T01:31:18.230Z,-3.10
2022-12-14T01:33:45.473Z,-3.10
2022-12-14T01:36:17.287Z,-3.00
2022-12-14T01:38:44.962Z,-3.00
2022-12-14T01:41:55.039Z,-3.00
2022-12-14T01:44:21.784Z,-3.00
2022-12-14T01:47:12.397Z,-3.00
2022-12-14T01:50:05.250Z,-3.00
2022-12-14T01:52:41.234Z,-3.00
2022-12-14T01:55:10.931Z,-3.00
2022-12-14T01:57:48.259Z,-3.00
2022-12-14T02:00:16.881Z,-3.00
2022-12-14T02:02:56.003Z,-3.00
2022-12-14T02:05:24.886Z,-3.00
2022-12-14T02:07:53.946Z,-3.00
2022-12-14T02:10:22.482Z,-3.00
2022-12-14T02:12:55.770Z,-3.00
2022-12-14T02:15:22.635Z,-3.00
2022-12-14T02:17:49.412Z,-3.00
2022-12-14T02:20:17.092Z,-3.00
2022-12-14T02:23:22.487Z,-3.00
2022-12-14T02:26:01.565Z,-3.00
2022-12-14T02:29:06.074Z,-3.00
2022-12-14T02:31:54.472Z,-3.00
2022-12-14T02:34:33.198Z,-3.00
2022-12-14T02:37:15.485Z,-3.00
2022-12-14T02:39:53.939Z,-3.00
2022-12-14T02:42:32.140Z,-3.00
2022-12-14T02:45:06.105Z,-3.00
2022-12-14T02:48:07.060Z,-2.90
2022-12-14T02:50:39.582Z,-2.90
2022-12-14T02:53:29.150Z,-2.90
2022-12-14T02:56:01.671Z,-2.90
2022-12-14T02:58:50.566Z,-2.90
2022-12-14T03:01:23.848Z,-2.90
2022-12-14T03:03:51.654Z,-2.90
2022-12-14T03:06:27.087Z,-2.90
2022-12-14T03:09:07.771Z,-2.90
2022-12-14T03:11:51.898Z,-2.90
2022-12-14T03:14:34.323Z,-2.80
2022-12-14T03:17:07.468Z,-2.80
2022-12-14T03:19:53.034Z,-2.70
2022-12-14T03:22:47.623Z,-2.70
2022-12-14T03:25:20.974Z,-2.70
2022-12-14T03:28:20.170Z,-2.70
2022-12-14T03:31:01.221Z,-2.60
2022-12-14T03:33:31.252Z,-2.60
2022-12-14T03:36:13.650Z,-2.60
2022-12-14T03:38:43.811Z,-2.60
2022-12-14T03:41:20.382Z,-2.50
2022-12-14T03:44:24.630Z,-2.50
2022-12-14T03:46:51.368Z,-2.40
2022-12-14T03:49:17.982Z,-2.40
2022-12-14T03:52:02.895Z,-2.40
2022-12-14T03:54:47.035Z,-2.30
2022-12-14T03:57:19.665Z,-2.30
2022-12-14T04:00:09.095Z,-2.30
2022-12-14T04:03:16.981Z,-2.30
2022-12-14T04:05:49.699Z,-2.20
2022-12-14T04:08:23.294Z,-2.20
2022-12-14T04:11:12.925Z,-2.10
2022-12-14T04:14:09.992Z,-2.10
2022-12-14T04:17:00.987Z,-2.10
2022-12-14T04:19:36.383Z,-2.10
2022-12-14T04:22:07.595Z,-2.20
2022-12-14T04:25:04.997Z,-2.20
2022-12-14T04:27:37.483Z,-2.20
2022-12-14T04:30:06.822Z,-2.20
2022-12-14T04:32:44.648Z,-2.20
2022-12-14T04:35:33.698Z,-2.20
2022-12-14T04:38:15.588Z,-2.20
2022-12-14T04:40:49.752Z,-2.30
2022-12-14T04:43:29.629Z,-2.30
2022-12-14T04:46:06.588Z,-2.30
2022-12-14T04:48:57.418Z,-2.30
2022-12-14T04:51:46.903Z,-2.30
2022-12-14T04:54:23.614Z,-2.30
2022-12-14T04:57:00.902Z,-2.40
2022-12-14T04:59:27.601Z,-2.40
2022-12-14T05:02:28.797Z,-2.40
2022-12-14T05:05:10.646Z,-2.40
2022-12-14T05:08:08.299Z,-2.40
2022-12-14T05:10:44.663Z,-2.40
2022-12-14T05:13:20.843Z,-2.30
2022-12-14T05:15:53.929Z,-2.40
2022-12-14T05:18:22.039Z,-2.30
2022-12-14T05:20:49.611Z,-2.30
2022-12-14T05:23:17.074Z,-2.30
2022-12-14T05:25:44.186Z,-2.30
2022-12-14T05:28:12.277Z,-2.20
2022-12-14T05:30:39.418Z,-2.20
2022-12-14T05:33:06.227Z,-2.20
2022-12-14T05:35:33.001Z,-2.20
2022-12-14T05:38:00.093Z,-2.20
2022-12-14T05:40:27.000Z,-2.10
2022-12-14T05:43:04.714Z,-2.10
2022-12-14T05:45:31.572Z,-2.10
2022-12-14T05:47:58.277Z,-2.00
2022-12-14T05:50:25.143Z,-2.00
2022-12-14T05:52:52.861Z,-2.00
2022-12-14T05:55:19.718Z,-2.00
2022-12-14T05:57:46.448Z,-2.00
2022-12-14T06:00:13.890Z,-2.00
2022-12-14T06:02:40.632Z,-1.90
2022-12-14T06:05:07.691Z,-1.90
2022-12-14T06:07:34.389Z,-1.90
2022-12-14T06:10:01.027Z,-1.90
2022-12-14T06:12:27.728Z,-1.80
2022-12-14T06:14:54.510Z,-1.80
2022-12-14T06:17:21.156Z,-1.80
2022-12-14T06:19:49.853Z,-1.70
2022-12-14T06:22:17.852Z,-1.70
2022-12-14T06:24:44.564Z,-1.70
2022-12-14T06:27:11.177Z,-1.60
2022-12-14T06:29:37.974Z,-1.60
2022-12-14T06:32:04.804Z,-1.60
2022-12-14T06:34:36.752Z,-1.60
2022-12-14T06:37:06.178Z,-1.50
2022-12-14T06:39:33.069Z,-1.50
2022-12-14T06:41:59.734Z,-1.40
2022-12-14T06:44:26.524Z,-1.40
2022-12-14T06:46:53.353Z,-1.30
2022-12-14T06:49:20.104Z,-1.30
2022-12-14T06:51:46.740Z,-1.20
2022-12-14T06:54:13.786Z,-1.10
2022-12-14T06:56:40.649Z,-1.10
2022-12-14T06:59:08.700Z,-1.10
2022-12-14T07:01:36.239Z,-1.00
2022-12-14T07:04:03.015Z,-1.00
2022-12-14T07:06:32.254Z,-1.00
2022-12-14T07:08:59.853Z,-0.90
2022-12-14T07:11:27.510Z,-0.90
2022-12-14T07:13:54.764Z,-0.90
2022-12-14T07:16:22.778Z,-0.90
2022-12-14T07:18:49.664Z,-0.90
2022-12-14T07:21:17.127Z,-0.90
2022-12-14T07:23:44.579Z,-0.90
2022-12-14T07:26:12.627Z,-0.90
2022-12-14T07:28:39.589Z,-0.90
2022-12-14T07:31:17.560Z,-0.90
2022-12-14T07:33:45.747Z,-0.90
2022-12-14T07:36:13.672Z,-0.90
2022-12-14T07:38:40.902Z,-0.90
2022-12-14T07:41:27.007Z,-0.90
2022-12-14T07:43:55.008Z,-0.90
2022-12-14T07:46:23.616Z,-0.80
2022-12-14T07:48:51.481Z,-0.80
2022-12-14T07:51:19.356Z,-0.80
2022-12-14T07:53:46.055Z,-0.80
2022-12-14T07:56:23.447Z,-0.80
2022-12-14T07:58:50.223Z,-0.70
2022-12-14T08:01:27.445Z,-0.70
2022-12-14T08:03:55.499Z,-0.70
2022-12-14T08:06:23.231Z,-0.70
2022-12-14T08:08:49.992Z,-0.60
2022-12-14T08:11:17.058Z,-0.60
2022-12-14T08:13:44.108Z,-0.50
2022-12-14T08:16:12.110Z,-0.50
2022-12-14T08:18:38.947Z,-0.50
2022-12-14T08:21:06.495Z,-0.50
2022-12-14T08:23:58.812Z,-0.50
2022-12-14T08:26:30.172Z,-0.50
2022-12-14T08:29:02.202Z,-0.40
2022-12-14T08:31:29.490Z,-0.40
2022-12-14T08:33:58.684Z,-0.40
2022-12-14T08:36:30.808Z,-0.30
2022-12-14T08:38:59.907Z,-0.30
2022-12-14T08:41:27.373Z,-0.30
2022-12-14T08:43:59.413Z,-0.20
2022-12-14T08:46:27.985Z,-0.20
2022-12-14T08:48:55.618Z,-0.10
2022-12-14T08:51:23.750Z,-0.10
2022-12-14T08:53:50.806Z,-0.10
2022-12-14T08:56:20.649Z,-0.10
2022-12-14T08:58:47.720Z,-0.10
2022-12-14T09:01:20.844Z,0.00
2022-12-14T09:03:48.514Z,0.00
2022-12-14T09:06:20.712Z,0.00
2022-12-14T09:08:49.940Z,0.10
2022-12-14T09:11:18.939Z,0.10
2022-12-14T09:13:46.593Z,0.10
2022-12-14T09:16:16.471Z,0.20
2022-12-14T09:18:43.489Z,0.20
2022-12-14T09:21:10.482Z,0.20
2022-12-14T09:23:37.951Z,0.20
2022-12-14T09:26:08.598Z,0.20
2022-12-14T09:28:37.476Z,0.20
2022-12-14T09:31:07.183Z,0.30
2022-12-14T09:33:34.434Z,0.30
2022-12-14T09:36:07.028Z,0.20
2022-12-14T09:38:35.990Z,0.30
2022-12-14T09:41:07.533Z,0.30
2022-12-14T09:43:42.200Z,0.30
2022-12-14T09:46:39.800Z,0.30
2022-12-14T09:49:25.752Z,0.40
2022-12-14T09:51:55.157Z,0.40
2022-12-14T09:54:33.057Z,0.40
2022-12-14T09:57:19.202Z,0.40
2022-12-14T09:59:45.924Z,0.50
2022-12-14T10:02:32.259Z,0.50
2022-12-14T10:05:24.750Z,0.50
2022-12-14T10:07:57.299Z,0.50
2022-12-14T10:10:44.288Z,0.50
2022-12-14T10:13:29.194Z,0.50
2022-12-14T10:16:18.837Z,0.50
2022-12-14T10:19:12.536Z,0.50
2022-12-14T10:21:51.062Z,0.60
2022-12-14T10:24:22.781Z,0.60
2022-12-14T10:26:54.983Z,0.60
2022-12-14T10:29:32.648Z,0.60
2022-12-14T10:32:21.237Z,0.70
2022-12-14T10:34:48.464Z,0.70
2022-12-14T10:37:32.213Z,0.80
2022-12-14T10:40:31.147Z,0.90
2022-12-14T10:43:22.017Z,1.00
2022-12-14T10:45:56.452Z,1.10
2022-12-14T10:48:42.182Z,1.20
2022-12-14T10:51:41.677Z,1.30
2022-12-14T10:54:17.382Z,1.40
2022-12-14T10:56:49.947Z,1.50
2022-12-14T10:59:26.239Z,1.60
2022-12-14T11:02:01.125Z,1.70
2022-12-14T11:04:36.178Z,1.80
2022-12-14T11:07:07.764Z,2.10
2022-12-14T11:09:34.726Z,2.40
2022-12-14T11:12:07.661Z,2.60
2022-12-14T11:14:37.615Z,2.80
2022-12-14T11:17:05.412Z,3.00
2022-12-14T11:19:32.306Z,3.10
2022-12-14T11:22:20.298Z,3.20
2022-12-14T11:24:51.341Z,3.30
2022-12-14T11:27:21.029Z,3.40
2022-12-14T11:29:50.363Z,3.50
2022-12-14T11:32:24.198Z,3.70
2022-12-14T11:34:57.290Z,4.00
2022-12-14T11:37:30.715Z,4.40
2022-12-14T11:40:03.937Z,4.80
2022-12-14T11:42:30.823Z,5.40
2022-12-14T11:45:19.319Z,5.90
2022-12-14T11:47:46.068Z,6.50
2022-12-14T11:50:25.226Z,7.10
2022-12-14T11:53:07.838Z,7.70
2022-12-14T11:55:41.035Z,8.30
2022-12-14T11:58:20.507Z,8.70
2022-12-14T12:00:58.780Z,9.00
2022-12-14T12:03:33.888Z,9.00
2022-12-14T12:06:11.076Z,8.80
2022-12-14T12:08:40.289Z,8.60
2022-12-14T12:11:19.621Z,8.20
2022-12-14T12:13:50.897Z,7.80
2022-12-14T12:16:21.809Z,7.50
2022-12-14T12:18:51.098Z,7.10
2022-12-14T12:21:32.617Z,6.70
2022-12-14T12:24:24.781Z,6.40
2022-12-14T12:26:57.773Z,6.10
2022-12-14T12:29:48.028Z,5.80
2022-12-14T12:32:19.698Z,5.60
2022-12-14T12:34:49.576Z,5.30
2022-12-14T12:37:29.643Z,5.20
2022-12-14T12:40:02.641Z,5.10
2022-12-14T12:43:10.479Z,5.00
2022-12-14T12:45:45.610Z,5.00
2022-12-14T12:48:34.728Z,4.90
2022-12-14T12:51:07.073Z,4.80
2022-12-14T12:53:45.505Z,4.70
2022-12-14T12:56:17.325Z,4.60
2022-12-14T12:58:52.162Z,4.40
2022-12-14T13:01:22.542Z,4.30
2022-12-14T13:03:53.160Z,4.10
2022-12-14T13:06:29.906Z,4.00
2022-12-14T13:09:06.099Z,3.80
2022-12-14T13:11:38.214Z,3.70
2022-12-14T13:14:27.994Z,3.60
2022-12-14T13:16:55.549Z,3.50
2022-12-14T13:19:54.398Z,3.40
2022-12-14T13:22:28.607Z,3.40
2022-12-14T13:25:00.004Z,3.40
2022-12-14T13:27:33.649Z,3.30
2022-12-14T13:30:23.010Z,3.20
2022-12-14T13:33:27.336Z,3.10
2022-12-14T13:36:18.089Z,2.90
2022-12-14T13:39:03.564Z,2.80
2022-12-14T13:41:42.540Z,2.80
2022-12-14T13:44:38.621Z,2.70
2022-12-14T13:47:16.354Z,2.70
2022-12-14T13:50:26.937Z,2.60
2022-12-14T13:52:43.109Z,2.60
2022-12-14T13:55:30.817Z,2.60
2022-12-14T13:58:34.083Z,2.50
2022-12-14T14:01:15.503Z,2.50
2022-12-14T14:03:46.513Z,2.50
2022-12-14T14:06:32.866Z,2.50
2022-12-14T14:09:19.764Z,2.40
2022-12-14T14:11:58.399Z,2.40
2022-12-14T14:14:51.721Z,2.40
2022-12-14T14:17:39.923Z,2.40
2022-12-14T14:20:42.150Z,2.30
2022-12-14T14:23:15.357Z,2.30
2022-12-14T14:26:10.459Z,2.20
2022-12-14T14:28:38.053Z,2.20
2022-12-14T14:31:05.767Z,2.20
2022-12-14T14:33:49.500Z,2.20
2022-12-14T14:36:33.504Z,2.20
2022-12-14T14:39:24.574Z,2.20
2022-12-14T14:41:54.186Z,2.20
2022-12-14T14:44:48.165Z,2.20
2022-12-14T14:47:29.365Z,2.20
2022-12-14T14:50:08.192Z,2.20
2022-12-14T14:52:38.297Z,2.20
2022-12-14T14:55:53.208Z,2.20
2022-12-14T14:58:37.428Z,2.20
2022-12-14T15:01:28.221Z,2.30
2022-12-14T15:03:57.058Z,2.30
2022-12-14T15:06:36.802Z,2.40
2022-12-14T15:09:07.253Z,2.40
2022-12-14T15:11:48.808Z,2.40
2022-12-14T15:14:33.068Z,2.40
2022-12-14T15:17:12.344Z,2.40
2022-12-14T15:19:39.359Z,2.40
2022-12-14T15:22:09.207Z,2.40
2022-12-14T15:24:41.920Z,2.40
2022-12-14T15:27:34.756Z,2.40
2022-12-14T15:30:10.772Z,2.40
2022-12-14T15:32:47.465Z,2.40
2022-12-14T15:35:23.164Z,2.50
2022-12-14T15:37:56.425Z,2.50
2022-12-14T15:40:30.188Z,2.50
2022-12-14T15:42:59.399Z,2.50
2022-12-14T15:45:29.753Z,2.40
2022-12-14T15:48:11.921Z,2.40
2022-12-14T15:50:43.708Z,2.40
2022-12-14T15:53:20.165Z,2.40
2022-12-14T15:56:00.310Z,2.50
2022-12-14T15:58:28.711Z,2.50
2022-12-14T16:01:01.025Z,2.40
2022-12-14T16:03:30.052Z,2.50
2022-12-14T16:05:58.107Z,2.40
2022-12-14T16:08:25.340Z,2.40
2022-12-14T16:10:55.190Z,2.40
2022-12-14T16:13:39.179Z,2.40
2022-12-14T16:16:13.786Z,2.40
2022-12-14T16:18:50.877Z,2.40
2022-12-14T16:21:33.386Z,2.40
2022-12-14T16:24:13.171Z,2.40
2022-12-14T16:26:40.040Z,2.40
2022-12-14T16:29:09.143Z,2.40
2022-12-14T16:31:37.428Z,2.40
2022-12-14T16:34:27.444Z,2.40
2022-12-14T16:37:30.830Z,2.50
2022-12-14T16:39:49.486Z,2.40
2022-12-14T16:42:24.987Z,2.40
2022-12-14T16:44:55.189Z,2.40
2022-12-14T16:47:34.160Z,2.40
2022-12-14T16:50:01.045Z,2.40
2022-12-14T16:52:33.166Z,2.40
2022-12-14T16:55:20.431Z,2.40
2022-12-14T16:57:58.478Z,2.40
2022-12-14T17:00:31.500Z,2.40
2022-12-14T17:03:04.096Z,2.40
2022-12-14T17:05:37.184Z,2.40
2022-12-14T17:08:05.502Z,2.50
2022-12-14T17:10:33.129Z,2.50
2022-12-14T17:13:01.790Z,2.60
2022-12-14T17:15:32.225Z,2.60
2022-12-14T17:18:00.964Z,2.60
2022-12-14T17:20:39.104Z,2.50
2022-12-14T17:23:08.743Z,2.60
2022-12-14T17:25:36.347Z,2.60
2022-12-14T17:28:03.693Z,2.60
2022-12-14T17:30:30.581Z,2.60
2022-12-14T17:32:57.908Z,2.60
2022-12-14T17:35:29.497Z,2.60
2022-12-14T17:37:56.910Z,2.60
2022-12-14T17:40:24.334Z,2.60
2022-12-14T17:42:56.759Z,2.60
2022-12-14T17:45:28.955Z,2.60
2022-12-14T17:47:56.490Z,2.60
2022-12-14T17:50:23.611Z,2.70
2022-12-14T17:52:50.579Z,2.70
2022-12-14T17:55:23.119Z,2.70
2022-12-14T17:57:50.480Z,2.80
2022-12-14T18:00:38.884Z,2.90
2022-12-14T18:03:06.736Z,2.90
2022-12-14T18:05:33.865Z,2.90
2022-12-14T18:08:00.574Z,2.90
2022-12-14T18:10:28.152Z,2.90
2022-12-14T18:12:55.617Z,2.90
2022-12-14T18:15:31.278Z,2.90
2022-12-14T18:17:58.149Z,2.80
2022-12-14T18:20:24.836Z,2.80
2022-12-14T18:22:52.107Z,2.70
2022-12-14T18:25:37.543Z,2.80
2022-12-14T18:28:06.200Z,2.80
2022-12-14T18:30:40.545Z,2.90
2022-12-14T18:33:18.092Z,2.90
2022-12-14T18:35:46.433Z,2.90
2022-12-14T18:38:13.462Z,2.90
2022-12-14T18:40:42.508Z,2.90
2022-12-14T18:43:17.029Z,2.80
2022-12-14T18:45:43.821Z,2.80
2022-12-14T18:48:11.539Z,2.80
2022-12-14T18:50:42.684Z,2.70
2022-12-14T18:53:17.957Z,2.70
2022-12-14T18:55:44.886Z,2.70
2022-12-14T18:58:20.866Z,2.70
2022-12-14T19:00:48.426Z,2.60
2022-12-14T19:03:15.348Z,2.70
2022-12-14T19:05:43.365Z,2.60
2022-12-14T19:08:11.161Z,2.60
2022-12-14T19:10:41.356Z,2.70
2022-12-14T19:13:10.371Z,2.60
2022-12-14T19:15:37.127Z,2.60
2022-12-14T19:18:03.854Z,2.60
2022-12-14T19:20:30.685Z,2.60
2022-12-14T19:22:57.680Z,2.60
2022-12-14T19:25:25.077Z,2.60
2022-12-14T19:30:39.282Z,2.60
2022-12-14T19:33:06.035Z,2.60
2022-12-14T19:35:32.972Z,2.60
2022-12-14T19:37:59.580Z,2.60
2022-12-14T19:40:26.655Z,2.60
2022-12-14T19:42:53.564Z,2.70
2022-12-14T19:45:20.276Z,2.60
2022-12-14T19:47:47.003Z,2.70
2022-12-14T19:50:14.383Z,2.70
2022-12-14T19:52:41.618Z,2.70
2022-12-14T19:55:09.144Z,2.70
2022-12-14T19:57:36.778Z,2.70
2022-12-14T20:00:05.464Z,2.70
2022-12-14T20:02:37.360Z,2.70
2022-12-14T20:05:05.363Z,2.70
2022-12-14T20:07:32.151Z,2.60
2022-12-14T20:09:58.814Z,2.60
2022-12-14T20:12:25.563Z,2.60
2022-12-14T20:14:52.221Z,2.60
2022-12-14T20:17:18.907Z,2.50
2022-12-14T20:19:45.632Z,2.50
2022-12-14T20:22:14.716Z,2.60
2022-12-14T20:24:42.361Z,2.60
2022-12-14T20:27:09.141Z,2.60
2022-12-14T20:29:37.120Z,2.60
2022-12-14T20:32:03.962Z,2.60
2022-12-14T20:34:30.767Z,2.60
2022-12-14T20:36:57.367Z,2.60
2022-12-14T20:39:24.089Z,2.70
2022-12-14T20:41:50.872Z,2.70
2022-12-14T20:44:17.745Z,2.70
2022-12-14T20:46:46.364Z,2.70
2022-12-14T20:49:16.000Z,2.70
2022-12-14T20:51:44.233Z,2.80
2022-12-14T20:54:14.316Z,2.80
2022-12-14T20:56:41.187Z,2.80
2022-12-14T20:59:08.620Z,2.80
2022-12-14T21:01:38.160Z,2.80
2022-12-14T21:04:05.776Z,2.80
2022-12-14T21:06:33.305Z,2.80
2022-12-14T21:09:09.475Z,2.80
2022-12-14T21:12:03.756Z,2.70
2022-12-14T21:14:33.513Z,2.70
2022-12-14T21:17:01.071Z,2.70
2022-12-14T21:19:28.140Z,2.70
2022-12-14T21:21:54.946Z,2.70
2022-12-14T21:24:52.530Z,2.70
2022-12-14T21:27:14.822Z,2.70
2022-12-14T21:29:41.516Z,2.70
2022-12-14T21:32:08.303Z,2.70
2022-12-14T21:34:35.057Z,2.70
2022-12-14T21:37:01.704Z,2.60
2022-12-14T21:39:28.310Z,2.70
2022-12-14T21:42:10.370Z,2.70
2022-12-14T21:44:38.604Z,2.70
2022-12-14T21:47:08.404Z,2.70
2022-12-14T21:49:39.982Z,2.80
2022-12-14T21:52:07.949Z,2.70
2022-12-14T21:54:35.143Z,2.80
2022-12-14T21:57:20.465Z,2.80
2022-12-14T21:59:47.458Z,2.90
2022-12-14T22:02:23.026Z,2.90
2022-12-14T22:04:50.351Z,2.90
2022-12-14T22:07:19.203Z,2.90
2022-12-14T22:09:49.443Z,3.00
2022-12-14T22:12:17.888Z,3.00
2022-12-14T22:14:44.639Z,3.00
2022-12-14T22:17:11.428Z,3.00
2022-12-14T22:19:38.068Z,3.00
2022-12-14T22:22:05.124Z,2.90
2022-12-14T22:24:32.080Z,2.90
2022-12-14T22:26:59.376Z,2.90
2022-12-14T22:29:26.320Z,2.80
2022-12-14T22:31:53.090Z,2.80
2022-12-14T22:34:22.681Z,2.80
2022-12-14T22:36:50.907Z,2.80
2022-12-14T22:39:18.600Z,2.80
2022-12-14T22:41:45.949Z,2.80
2022-12-14T22:44:13.115Z,2.80
2022-12-14T22:46:40.640Z,2.70
2022-12-14T22:49:08.510Z,2.80
2022-12-14T22:51:35.514Z,2.80
2022-12-14T22:54:02.683Z,2.70
2022-12-14T22:56:40.088Z,2.70
2022-12-14T22:59:15.392Z,2.70
2022-12-14T23:01:43.510Z,2.70
2022-12-14T23:04:16.751Z,2.70
2022-12-14T23:06:43.530Z,2.80
2022-12-14T23:09:28.698Z,2.90
2022-12-14T23:12:18.251Z,2.90
2022-12-14T23:15:06.622Z,2.90
2022-12-14T23:17:51.999Z,2.90
2022-12-14T23:20:37.573Z,2.90
2022-12-14T23:23:27.199Z,2.90
2022-12-14T23:26:12.796Z,3.00
2022-12-14T23:28:58.332Z,3.00
2022-12-14T23:31:43.824Z,2.90
2022-12-14T23:34:29.166Z,2.90
2022-12-14T23:37:19.723Z,2.80
2022-12-14T23:40:06.353Z,2.70
2022-12-14T23:42:51.669Z,2.70
2022-12-14T23:45:37.135Z,2.60
2022-12-14T23:48:22.650Z,2.50
2022-12-14T23:51:08.178Z,2.50
2022-12-14T23:53:53.860Z,2.50
2022-12-14T23:56:39.798Z,2.40
2022-12-14T23:59:31.518Z,2.30
